Rancho West, New Mexico
Current Conditions -  °F | °C
As of 11:48 AM on Sunday 23 Nov 2014 (Local Time) from KAEG Reporting Station
Broken Clouds Broken Clouds  
Wind Chill: 32°   Ceiling: 9000
Heat Index: 43°   Visibility: 10mi
Dew Point: 19°   Wind: 30mph
Humidity: 39%   Direction: 290°WNW
Pressure: 29.88"   Gusts: 41mph
Location:  35.2385°N, 106.668°W
Report Text: KAEG 231848Z 29026G36KT 10SM SCT050 BKN090 06/M07 A2988
Loading
Personal Weather Stations






























Interactive Weather Map New forecast layout! Learn more

10-Day Weather Forecast

Advertisements
Track Severe Weather on mobile